sensor_id;sensor_type;location;lat;lon;timestamp;P1;durP1;ratioP1;P2;durP2;ratioP2
81903;SDS011;71370;-33.792;151.032;2023-11-22T00:00:00;4.30;;;0.80;;
81903;SDS011;71370;-33.792;151.032;2023-11-22T00:01:10;3.60;;;1.10;;
81903;SDS011;71370;-33.792;151.032;2023-11-22T00:02:17;4.10;;;0.50;;
81903;SDS011;71370;-33.792;151.032;2023-11-22T00:03:25;2.80;;;0.80;;
81903;SDS011;71370;-33.792;151.032;2023-11-22T00:04:33;3.10;;;0.80;;
81903;SDS011;71370;-33.792;151.032;2023-11-22T00:05:40;3.70;;;0.50;;
81903;SDS011;71370;-33.792;151.032;2023-11-22T00:06:47;3.00;;;0.90;;
81903;SDS011;71370;-33.792;151.032;2023-11-22T00:07:54;3.50;;;0.60;;
81903;SDS011;71370;-33.792;151.032;2023-11-22T00:09:01;2.70;;;0.80;;
81903;SDS011;71370;-33.792;151.032;2023-11-22T00:10:08;2.40;;;0.60;;
81903;SDS011;71370;-33.792;151.032;2023-11-22T00:11:15;2.80;;;0.40;;
81903;SDS011;71370;-33.792;151.032;2023-11-22T00:12:22;2.80;;;1.00;;
81903;SDS011;71370;-33.792;151.032;2023-11-22T00:13:30;2.60;;;0.30;;
81903;SDS011;71370;-33.792;151.032;2023-11-22T00:14:38;2.20;;;0.50;;
81903;SDS011;71370;-33.792;151.032;2023-11-22T00:15:46;3.70;;;0.60;;
81903;SDS011;71370;-33.792;151.032;2023-11-22T00:16:55;4.10;;;0.80;;
81903;SDS011;71370;-33.792;151.032;2023-11-22T00:18:02;2.10;;;0.50;;
81903;SDS011;71370;-33.792;151.032;2023-11-22T00:19:10;2.60;;;0.60;;
81903;SDS011;71370;-33.792;151.032;2023-11-22T00:20:17;2.30;;;0.30;;
81903;SDS011;71370;-33.792;151.032;2023-11-22T00:21:24;2.20;;;0.30;;
81903;SDS011;71370;-33.792;151.032;2023-11-22T00:22:32;2.50;;;0.90;;
81903;SDS011;71370;-33.792;151.032;2023-11-22T00:23:39;2.90;;;0.60;;
81903;SDS011;71370;-33.792;151.032;2023-11-22T00:24:46;2.40;;;0.70;;
81903;SDS011;71370;-33.792;151.032;2023-11-22T00:25:55;3.00;;;0.60;;
81903;SDS011;71370;-33.792;151.032;2023-11-22T00:27:02;2.80;;;0.40;;
81903;SDS011;71370;-33.792;151.032;2023-11-22T00:28:10;3.70;;;0.90;;
81903;SDS011;71370;-33.792;151.032;2023-11-22T00:29:17;2.60;;;0.50;;
81903;SDS011;71370;-33.792;151.032;2023-11-22T00:30:24;2.80;;;0.70;;
81903;SDS011;71370;-33.792;151.032;2023-11-22T00:31:31;2.40;;;0.70;;
81903;SDS011;71370;-33.792;151.032;2023-11-22T00:32:38;3.20;;;0.60;;
81903;SDS011;71370;-33.792;151.032;2023-11-22T00:33:48;2.10;;;0.40;;
81903;SDS011;71370;-33.792;151.032;2023-11-22T00:34:55;2.20;;;0.70;;
81903;SDS011;71370;-33.792;151.032;2023-11-22T00:36:03;3.70;;;0.70;;
81903;SDS011;71370;-33.792;151.032;2023-11-22T00:37:13;3.90;;;0.50;;
81903;SDS011;71370;-33.792;151.032;2023-11-22T00:38:21;3.20;;;1.00;;
81903;SDS011;71370;-33.792;151.032;2023-11-22T00:39:28;2.90;;;0.70;;
81903;SDS011;71370;-33.792;151.032;2023-11-22T00:40:35;2.60;;;0.60;;
81903;SDS011;71370;-33.792;151.032;2023-11-22T00:41:42;2.40;;;0.60;;
81903;SDS011;71370;-33.792;151.032;2023-11-22T00:42:50;2.70;;;0.90;;
81903;SDS011;71370;-33.792;151.032;2023-11-22T00:43:57;3.10;;;0.40;;
81903;SDS011;71370;-33.792;151.032;2023-11-22T00:45:04;2.40;;;0.90;;
81903;SDS011;71370;-33.792;151.032;2023-11-22T00:46:12;1.80;;;0.30;;
81903;SDS011;71370;-33.792;151.032;2023-11-22T00:47:20;3.10;;;1.10;;
81903;SDS011;71370;-33.792;151.032;2023-11-22T00:48:28;5.10;;;0.60;;
81903;SDS011;71370;-33.792;151.032;2023-11-22T00:49:35;1.80;;;0.70;;
81903;SDS011;71370;-33.792;151.032;2023-11-22T00:50:42;2.70;;;0.50;;
81903;SDS011;71370;-33.792;151.032;2023-11-22T00:51:50;2.90;;;0.80;;
81903;SDS011;71370;-33.792;151.032;2023-11-22T00:52:58;4.10;;;0.40;;
81903;SDS011;71370;-33.792;151.032;2023-11-22T00:54:05;3.10;;;0.70;;
81903;SDS011;71370;-33.792;151.032;2023-11-22T00:55:12;3.50;;;0.60;;
81903;SDS011;71370;-33.792;151.032;2023-11-22T00:56:19;3.20;;;1.00;;
81903;SDS011;71370;-33.792;151.032;2023-11-22T00:57:27;3.80;;;0.50;;
81903;SDS011;71370;-33.792;151.032;2023-11-22T00:58:35;4.30;;;1.20;;
81903;SDS011;71370;-33.792;151.032;2023-11-22T00:59:43;2.10;;;0.60;;
81903;SDS011;71370;-33.792;151.032;2023-11-22T01:00:50;3.40;;;0.70;;
81903;SDS011;71370;-33.792;151.032;2023-11-22T01:01:57;3.80;;;0.80;;
81903;SDS011;71370;-33.792;151.032;2023-11-22T01:03:04;3.30;;;0.90;;
81903;SDS011;71370;-33.792;151.032;2023-11-22T01:04:11;3.40;;;0.60;;
81903;SDS011;71370;-33.792;151.032;2023-11-22T01:05:18;5.40;;;1.10;;
81903;SDS011;71370;-33.792;151.032;2023-11-22T01:06:25;4.30;;;1.00;;
81903;SDS011;71370;-33.792;151.032;2023-11-22T01:07:32;2.60;;;0.60;;
81903;SDS011;71370;-33.792;151.032;2023-11-22T01:08:40;3.00;;;0.80;;
81903;SDS011;71370;-33.792;151.032;2023-11-22T01:09:47;2.60;;;0.70;;
81903;SDS011;71370;-33.792;151.032;2023-11-22T01:10:54;4.30;;;1.10;;
81903;SDS011;71370;-33.792;151.032;2023-11-22T01:12:03;4.30;;;1.00;;
81903;SDS011;71370;-33.792;151.032;2023-11-22T01:13:10;4.50;;;1.20;;
81903;SDS011;71370;-33.792;151.032;2023-11-22T01:14:17;2.90;;;0.60;;
81903;SDS011;71370;-33.792;151.032;2023-11-22T01:15:24;3.20;;;0.80;;
81903;SDS011;71370;-33.792;151.032;2023-11-22T01:16:32;2.60;;;0.60;;
81903;SDS011;71370;-33.792;151.032;2023-11-22T01:17:39;3.50;;;1.00;;
81903;SDS011;71370;-33.792;151.032;2023-11-22T01:18:46;3.80;;;0.50;;
81903;SDS011;71370;-33.792;151.032;2023-11-22T01:19:53;3.40;;;1.00;;
81903;SDS011;71370;-33.792;151.032;2023-11-22T01:21:00;4.10;;;0.90;;
81903;SDS011;71370;-33.792;151.032;2023-11-22T01:22:09;4.30;;;0.50;;
81903;SDS011;71370;-33.792;151.032;2023-11-22T01:23:16;2.10;;;0.70;;
81903;SDS011;71370;-33.792;151.032;2023-11-22T01:24:23;2.10;;;0.60;;
81903;SDS011;71370;-33.792;151.032;2023-11-22T01:25:31;3.80;;;0.90;;
81903;SDS011;71370;-33.792;151.032;2023-11-22T01:26:39;2.60;;;1.00;;
81903;SDS011;71370;-33.792;151.032;2023-11-22T01:27:46;3.70;;;1.00;;
81903;SDS011;71370;-33.792;151.032;2023-11-22T01:28:53;3.40;;;1.20;;
81903;SDS011;71370;-33.792;151.032;2023-11-22T01:30:00;3.20;;;1.00;;
81903;SDS011;71370;-33.792;151.032;2023-11-22T01:31:10;2.60;;;0.80;;
81903;SDS011;71370;-33.792;151.032;2023-11-22T01:32:19;2.70;;;0.60;;
81903;SDS011;71370;-33.792;151.032;2023-11-22T01:33:26;3.20;;;0.90;;
81903;SDS011;71370;-33.792;151.032;2023-11-22T01:34:35;4.00;;;1.50;;
81903;SDS011;71370;-33.792;151.032;2023-11-22T01:35:42;2.80;;;0.70;;
81903;SDS011;71370;-33.792;151.032;2023-11-22T01:36:52;4.10;;;0.90;;
81903;SDS011;71370;-33.792;151.032;2023-11-22T01:37:59;4.30;;;0.90;;
81903;SDS011;71370;-33.792;151.032;2023-11-22T01:39:07;2.20;;;0.60;;
81903;SDS011;71370;-33.792;151.032;2023-11-22T01:40:14;4.90;;;1.30;;
81903;SDS011;71370;-33.792;151.032;2023-11-22T01:41:22;4.50;;;0.80;;
81903;SDS011;71370;-33.792;151.032;2023-11-22T01:42:30;3.40;;;1.20;;
81903;SDS011;71370;-33.792;151.032;2023-11-22T01:43:37;4.00;;;0.80;;
81903;SDS011;71370;-33.792;151.032;2023-11-22T01:44:45;2.50;;;1.10;;
81903;SDS011;71370;-33.792;151.032;2023-11-22T01:45:54;3.50;;;0.70;;
81903;SDS011;71370;-33.792;151.032;2023-11-22T01:47:02;3.50;;;1.20;;
81903;SDS011;71370;-33.792;151.032;2023-11-22T01:48:11;3.90;;;1.00;;
81903;SDS011;71370;-33.792;151.032;2023-11-22T01:49:19;5.90;;;0.90;;
81903;SDS011;71370;-33.792;151.032;2023-11-22T01:50:26;2.50;;;0.80;;
81903;SDS011;71370;-33.792;151.032;2023-11-22T01:51:33;3.90;;;1.40;;
81903;SDS011;71370;-33.792;151.032;2023-11-22T01:52:41;3.60;;;1.10;;
81903;SDS011;71370;-33.792;151.032;2023-11-22T01:53:48;3.70;;;1.10;;
81903;SDS011;71370;-33.792;151.032;2023-11-22T01:55:02;4.80;;;0.90;;
81903;SDS011;71370;-33.792;151.032;2023-11-22T01:56:10;4.70;;;0.90;;
81903;SDS011;71370;-33.792;151.032;2023-11-22T01:57:17;3.50;;;1.80;;
81903;SDS011;71370;-33.792;151.032;2023-11-22T01:58:26;2.80;;;0.90;;
81903;SDS011;71370;-33.792;151.032;2023-11-22T01:59:34;4.20;;;0.90;;
81903;SDS011;71370;-33.792;151.032;2023-11-22T02:00:43;3.00;;;0.90;;
81903;SDS011;71370;-33.792;151.032;2023-11-22T02:01:55;3.60;;;0.80;;
81903;SDS011;71370;-33.792;151.032;2023-11-22T02:03:02;4.30;;;1.20;;
81903;SDS011;71370;-33.792;151.032;2023-11-22T02:04:11;3.20;;;1.50;;
81903;SDS011;71370;-33.792;151.032;2023-11-22T02:05:19;5.30;;;1.60;;
81903;SDS011;71370;-33.792;151.032;2023-11-22T02:06:26;3.30;;;1.00;;
81903;SDS011;71370;-33.792;151.032;2023-11-22T02:07:36;4.80;;;0.90;;
81903;SDS011;71370;-33.792;151.032;2023-11-22T02:08:44;5.70;;;1.50;;
81903;SDS011;71370;-33.792;151.032;2023-11-22T02:09:51;5.10;;;1.40;;
81903;SDS011;71370;-33.792;151.032;2023-11-22T02:10:59;3.70;;;1.00;;
81903;SDS011;71370;-33.792;151.032;2023-11-22T02:12:10;3.10;;;1.20;;
81903;SDS011;71370;-33.792;151.032;2023-11-22T02:13:17;4.40;;;2.10;;
81903;SDS011;71370;-33.792;151.032;2023-11-22T02:14:26;3.40;;;1.20;;
81903;SDS011;71370;-33.792;151.032;2023-11-22T02:15:33;3.00;;;1.10;;
81903;SDS011;71370;-33.792;151.032;2023-11-22T02:16:41;3.30;;;1.00;;
81903;SDS011;71370;-33.792;151.032;2023-11-22T02:17:48;5.00;;;1.30;;
81903;SDS011;71370;-33.792;151.032;2023-11-22T02:18:55;4.90;;;1.60;;
81903;SDS011;71370;-33.792;151.032;2023-11-22T02:20:02;3.70;;;1.60;;
81903;SDS011;71370;-33.792;151.032;2023-11-22T02:21:16;4.10;;;1.20;;
81903;SDS011;71370;-33.792;151.032;2023-11-22T02:22:23;2.40;;;1.20;;
81903;SDS011;71370;-33.792;151.032;2023-11-22T02:23:31;3.20;;;1.10;;
81903;SDS011;71370;-33.792;151.032;2023-11-22T02:24:38;3.90;;;1.30;;
81903;SDS011;71370;-33.792;151.032;2023-11-22T02:25:45;4.60;;;1.30;;
81903;SDS011;71370;-33.792;151.032;2023-11-22T02:26:53;3.80;;;1.30;;
81903;SDS011;71370;-33.792;151.032;2023-11-22T02:28:00;4.60;;;1.60;;
81903;SDS011;71370;-33.792;151.032;2023-11-22T02:29:08;5.20;;;1.80;;
81903;SDS011;71370;-33.792;151.032;2023-11-22T02:30:15;4.70;;;1.40;;
81903;SDS011;71370;-33.792;151.032;2023-11-22T02:31:22;5.40;;;1.30;;
81903;SDS011;71370;-33.792;151.032;2023-11-22T02:32:29;4.70;;;1.50;;
81903;SDS011;71370;-33.792;151.032;2023-11-22T02:33:36;4.30;;;1.10;;
81903;SDS011;71370;-33.792;151.032;2023-11-22T02:34:44;5.00;;;1.50;;
81903;SDS011;71370;-33.792;151.032;2023-11-22T02:35:51;4.40;;;1.90;;
81903;SDS011;71370;-33.792;151.032;2023-11-22T02:37:00;5.10;;;1.60;;
81903;SDS011;71370;-33.792;151.032;2023-11-22T02:38:07;5.00;;;2.10;;
81903;SDS011;71370;-33.792;151.032;2023-11-22T02:39:14;5.00;;;1.90;;
81903;SDS011;71370;-33.792;151.032;2023-11-22T02:40:22;5.20;;;1.90;;
81903;SDS011;71370;-33.792;151.032;2023-11-22T02:41:30;5.50;;;2.90;;
81903;SDS011;71370;-33.792;151.032;2023-11-22T02:42:37;4.40;;;2.20;;
81903;SDS011;71370;-33.792;151.032;2023-11-22T02:43:44;4.10;;;2.50;;
81903;SDS011;71370;-33.792;151.032;2023-11-22T02:44:51;6.20;;;1.80;;
81903;SDS011;71370;-33.792;151.032;2023-11-22T02:45:59;4.80;;;2.20;;
81903;SDS011;71370;-33.792;151.032;2023-11-22T02:47:06;5.90;;;2.50;;
81903;SDS011;71370;-33.792;151.032;2023-11-22T02:48:13;9.00;;;2.40;;
81903;SDS011;71370;-33.792;151.032;2023-11-22T02:49:20;5.50;;;2.00;;
81903;SDS011;71370;-33.792;151.032;2023-11-22T02:50:27;5.60;;;2.00;;
81903;SDS011;71370;-33.792;151.032;2023-11-22T02:51:34;5.80;;;2.40;;
81903;SDS011;71370;-33.792;151.032;2023-11-22T02:52:41;6.50;;;2.50;;
81903;SDS011;71370;-33.792;151.032;2023-11-22T02:53:49;5.40;;;2.30;;
81903;SDS011;71370;-33.792;151.032;2023-11-22T02:54:56;4.70;;;2.40;;
81903;SDS011;71370;-33.792;151.032;2023-11-22T02:56:04;6.70;;;1.90;;
81903;SDS011;71370;-33.792;151.032;2023-11-22T02:57:12;5.10;;;2.10;;
81903;SDS011;71370;-33.792;151.032;2023-11-22T02:58:19;6.30;;;2.40;;
81903;SDS011;71370;-33.792;151.032;2023-11-22T02:59:26;5.80;;;2.20;;
81903;SDS011;71370;-33.792;151.032;2023-11-22T03:00:33;6.30;;;2.70;;
81903;SDS011;71370;-33.792;151.032;2023-11-22T03:01:40;5.40;;;2.10;;
81903;SDS011;71370;-33.792;151.032;2023-11-22T03:02:48;5.50;;;2.20;;
81903;SDS011;71370;-33.792;151.032;2023-11-22T03:03:59;5.60;;;2.60;;
81903;SDS011;71370;-33.792;151.032;2023-11-22T03:05:06;7.40;;;2.50;;
81903;SDS011;71370;-33.792;151.032;2023-11-22T03:06:16;5.80;;;2.50;;
81903;SDS011;71370;-33.792;151.032;2023-11-22T03:07:24;6.50;;;2.80;;
81903;SDS011;71370;-33.792;151.032;2023-11-22T03:08:32;5.20;;;2.10;;
81903;SDS011;71370;-33.792;151.032;2023-11-22T03:09:39;5.30;;;1.90;;
81903;SDS011;71370;-33.792;151.032;2023-11-22T03:10:49;4.50;;;1.90;;
81903;SDS011;71370;-33.792;151.032;2023-11-22T03:11:56;5.00;;;1.40;;
81903;SDS011;71370;-33.792;151.032;2023-11-22T03:13:03;4.30;;;1.90;;
81903;SDS011;71370;-33.792;151.032;2023-11-22T03:14:10;3.80;;;1.60;;
81903;SDS011;71370;-33.792;151.032;2023-11-22T03:15:17;4.80;;;2.10;;
81903;SDS011;71370;-33.792;151.032;2023-11-22T03:16:24;5.30;;;1.90;;
81903;SDS011;71370;-33.792;151.032;2023-11-22T03:17:31;5.80;;;2.10;;
81903;SDS011;71370;-33.792;151.032;2023-11-22T03:18:41;6.10;;;3.10;;
81903;SDS011;71370;-33.792;151.032;2023-11-22T03:19:48;5.70;;;2.20;;
81903;SDS011;71370;-33.792;151.032;2023-11-22T03:20:55;7.00;;;2.80;;
81903;SDS011;71370;-33.792;151.032;2023-11-22T03:22:02;5.20;;;2.40;;
81903;SDS011;71370;-33.792;151.032;2023-11-22T03:23:09;4.60;;;2.20;;
81903;SDS011;71370;-33.792;151.032;2023-11-22T03:24:16;7.20;;;2.60;;
81903;SDS011;71370;-33.792;151.032;2023-11-22T03:25:23;6.70;;;2.70;;
81903;SDS011;71370;-33.792;151.032;2023-11-22T03:26:30;5.00;;;2.50;;
81903;SDS011;71370;-33.792;151.032;2023-11-22T03:27:37;6.40;;;2.90;;
81903;SDS011;71370;-33.792;151.032;2023-11-22T03:28:45;8.20;;;3.10;;
81903;SDS011;71370;-33.792;151.032;2023-11-22T03:29:52;5.50;;;2.80;;
81903;SDS011;71370;-33.792;151.032;2023-11-22T03:30:59;7.30;;;2.70;;
81903;SDS011;71370;-33.792;151.032;2023-11-22T03:32:08;6.60;;;2.60;;
81903;SDS011;71370;-33.792;151.032;2023-11-22T03:33:17;7.50;;;3.30;;
81903;SDS011;71370;-33.792;151.032;2023-11-22T03:34:24;5.90;;;2.90;;
81903;SDS011;71370;-33.792;151.032;2023-11-22T03:35:31;5.90;;;3.00;;
81903;SDS011;71370;-33.792;151.032;2023-11-22T03:36:39;6.70;;;3.30;;
81903;SDS011;71370;-33.792;151.032;2023-11-22T03:37:47;8.20;;;3.40;;
81903;SDS011;71370;-33.792;151.032;2023-11-22T03:38:54;7.70;;;3.40;;
81903;SDS011;71370;-33.792;151.032;2023-11-22T03:40:01;5.60;;;2.90;;
81903;SDS011;71370;-33.792;151.032;2023-11-22T03:41:09;6.60;;;2.60;;
81903;SDS011;71370;-33.792;151.032;2023-11-22T03:42:16;9.10;;;3.80;;
81903;SDS011;71370;-33.792;151.032;2023-11-22T03:43:23;7.40;;;3.30;;
81903;SDS011;71370;-33.792;151.032;2023-11-22T03:44:30;7.40;;;3.10;;
81903;SDS011;71370;-33.792;151.032;2023-11-22T03:45:37;6.10;;;3.20;;
81903;SDS011;71370;-33.792;151.032;2023-11-22T03:46:44;6.40;;;2.90;;
81903;SDS011;71370;-33.792;151.032;2023-11-22T03:47:51;6.60;;;2.90;;
81903;SDS011;71370;-33.792;151.032;2023-11-22T03:48:59;6.70;;;2.50;;
81903;SDS011;71370;-33.792;151.032;2023-11-22T03:50:06;7.20;;;2.80;;
81903;SDS011;71370;-33.792;151.032;2023-11-22T03:51:15;5.00;;;2.20;;
81903;SDS011;71370;-33.792;151.032;2023-11-22T03:52:22;5.40;;;2.90;;
81903;SDS011;71370;-33.792;151.032;2023-11-22T03:53:29;6.90;;;2.60;;
81903;SDS011;71370;-33.792;151.032;2023-11-22T03:54:38;5.80;;;2.30;;
81903;SDS011;71370;-33.792;151.032;2023-11-22T03:55:45;5.30;;;2.80;;
81903;SDS011;71370;-33.792;151.032;2023-11-22T03:56:52;5.90;;;2.90;;
81903;SDS011;71370;-33.792;151.032;2023-11-22T03:57:59;7.30;;;2.50;;
81903;SDS011;71370;-33.792;151.032;2023-11-22T03:59:07;5.90;;;2.70;;
81903;SDS011;71370;-33.792;151.032;2023-11-22T04:00:14;6.40;;;2.60;;
81903;SDS011;71370;-33.792;151.032;2023-11-22T04:01:22;6.20;;;3.10;;
81903;SDS011;71370;-33.792;151.032;2023-11-22T04:02:29;7.00;;;2.80;;
81903;SDS011;71370;-33.792;151.032;2023-11-22T04:03:36;6.90;;;3.40;;
81903;SDS011;71370;-33.792;151.032;2023-11-22T04:04:43;6.50;;;3.90;;
81903;SDS011;71370;-33.792;151.032;2023-11-22T04:05:51;6.70;;;2.80;;
81903;SDS011;71370;-33.792;151.032;2023-11-22T04:06:58;5.50;;;2.60;;
81903;SDS011;71370;-33.792;151.032;2023-11-22T04:08:05;6.90;;;2.80;;
81903;SDS011;71370;-33.792;151.032;2023-11-22T04:09:14;6.40;;;2.90;;
81903;SDS011;71370;-33.792;151.032;2023-11-22T04:10:22;8.90;;;3.00;;
81903;SDS011;71370;-33.792;151.032;2023-11-22T04:11:29;5.80;;;2.80;;
81903;SDS011;71370;-33.792;151.032;2023-11-22T04:12:36;7.40;;;2.70;;
81903;SDS011;71370;-33.792;151.032;2023-11-22T04:13:43;5.80;;;2.50;;
81903;SDS011;71370;-33.792;151.032;2023-11-22T04:14:50;6.10;;;2.40;;
81903;SDS011;71370;-33.792;151.032;2023-11-22T04:15:57;7.20;;;2.90;;
81903;SDS011;71370;-33.792;151.032;2023-11-22T04:17:04;6.10;;;2.70;;
81903;SDS011;71370;-33.792;151.032;2023-11-22T04:18:11;6.80;;;2.20;;
81903;SDS011;71370;-33.792;151.032;2023-11-22T04:19:18;7.10;;;2.50;;
81903;SDS011;71370;-33.792;151.032;2023-11-22T04:20:25;6.30;;;3.10;;
81903;SDS011;71370;-33.792;151.032;2023-11-22T04:21:32;5.00;;;2.80;;
81903;SDS011;71370;-33.792;151.032;2023-11-22T04:22:40;6.90;;;2.40;;
81903;SDS011;71370;-33.792;151.032;2023-11-22T04:23:47;9.60;;;3.20;;
81903;SDS011;71370;-33.792;151.032;2023-11-22T04:24:54;5.80;;;2.70;;
81903;SDS011;71370;-33.792;151.032;2023-11-22T04:26:01;7.50;;;2.90;;
81903;SDS011;71370;-33.792;151.032;2023-11-22T04:27:08;5.80;;;2.50;;
81903;SDS011;71370;-33.792;151.032;2023-11-22T04:28:15;7.80;;;2.80;;
81903;SDS011;71370;-33.792;151.032;2023-11-22T04:29:23;6.60;;;3.00;;
81903;SDS011;71370;-33.792;151.032;2023-11-22T04:30:30;7.10;;;2.70;;
81903;SDS011;71370;-33.792;151.032;2023-11-22T04:31:37;6.30;;;2.60;;
81903;SDS011;71370;-33.792;151.032;2023-11-22T04:32:44;7.30;;;2.70;;
81903;SDS011;71370;-33.792;151.032;2023-11-22T04:33:52;7.00;;;2.30;;
81903;SDS011;71370;-33.792;151.032;2023-11-22T04:34:59;8.80;;;2.80;;
81903;SDS011;71370;-33.792;151.032;2023-11-22T04:36:06;5.90;;;2.60;;
81903;SDS011;71370;-33.792;151.032;2023-11-22T04:37:14;6.90;;;2.40;;
81903;SDS011;71370;-33.792;151.032;2023-11-22T04:38:21;9.20;;;3.50;;
81903;SDS011;71370;-33.792;151.032;2023-11-22T04:39:28;6.50;;;2.30;;
81903;SDS011;71370;-33.792;151.032;2023-11-22T04:40:36;7.70;;;3.00;;
81903;SDS011;71370;-33.792;151.032;2023-11-22T04:41:43;5.40;;;2.70;;
81903;SDS011;71370;-33.792;151.032;2023-11-22T04:42:50;7.10;;;2.90;;
81903;SDS011;71370;-33.792;151.032;2023-11-22T04:43:58;4.70;;;2.10;;
81903;SDS011;71370;-33.792;151.032;2023-11-22T04:45:05;6.60;;;2.90;;
81903;SDS011;71370;-33.792;151.032;2023-11-22T04:46:13;6.10;;;2.50;;
81903;SDS011;71370;-33.792;151.032;2023-11-22T04:47:20;6.40;;;2.30;;
81903;SDS011;71370;-33.792;151.032;2023-11-22T04:48:27;7.20;;;2.40;;
81903;SDS011;71370;-33.792;151.032;2023-11-22T04:49:34;8.10;;;3.20;;
81903;SDS011;71370;-33.792;151.032;2023-11-22T04:50:42;6.90;;;3.40;;
81903;SDS011;71370;-33.792;151.032;2023-11-22T04:51:49;5.90;;;2.70;;
81903;SDS011;71370;-33.792;151.032;2023-11-22T04:52:56;6.10;;;2.20;;
81903;SDS011;71370;-33.792;151.032;2023-11-22T04:54:04;10.70;;;2.60;;
81903;SDS011;71370;-33.792;151.032;2023-11-22T04:55:11;5.60;;;2.80;;
81903;SDS011;71370;-33.792;151.032;2023-11-22T04:56:18;6.50;;;2.90;;
81903;SDS011;71370;-33.792;151.032;2023-11-22T04:57:25;6.40;;;3.30;;
81903;SDS011;71370;-33.792;151.032;2023-11-22T04:58:33;5.80;;;2.50;;
81903;SDS011;71370;-33.792;151.032;2023-11-22T04:59:41;6.50;;;3.30;;
81903;SDS011;71370;-33.792;151.032;2023-11-22T05:00:48;8.60;;;3.00;;
81903;SDS011;71370;-33.792;151.032;2023-11-22T05:01:55;6.80;;;3.00;;
81903;SDS011;71370;-33.792;151.032;2023-11-22T05:03:02;5.10;;;2.80;;
81903;SDS011;71370;-33.792;151.032;2023-11-22T05:04:09;6.70;;;2.70;;
81903;SDS011;71370;-33.792;151.032;2023-11-22T05:05:16;5.70;;;2.00;;
81903;SDS011;71370;-33.792;151.032;2023-11-22T05:06:24;8.60;;;3.20;;
81903;SDS011;71370;-33.792;151.032;2023-11-22T05:07:32;8.00;;;2.60;;
81903;SDS011;71370;-33.792;151.032;2023-11-22T05:08:39;5.50;;;2.40;;
81903;SDS011;71370;-33.792;151.032;2023-11-22T05:09:46;6.80;;;2.30;;
81903;SDS011;71370;-33.792;151.032;2023-11-22T05:10:53;7.70;;;3.20;;
81903;SDS011;71370;-33.792;151.032;2023-11-22T05:12:00;7.80;;;2.70;;
81903;SDS011;71370;-33.792;151.032;2023-11-22T05:13:09;6.80;;;2.50;;
81903;SDS011;71370;-33.792;151.032;2023-11-22T05:14:16;6.60;;;2.40;;
81903;SDS011;71370;-33.792;151.032;2023-11-22T05:15:24;6.30;;;3.00;;
81903;SDS011;71370;-33.792;151.032;2023-11-22T05:16:31;8.10;;;3.00;;
81903;SDS011;71370;-33.792;151.032;2023-11-22T05:17:39;6.90;;;2.40;;
81903;SDS011;71370;-33.792;151.032;2023-11-22T05:18:46;6.50;;;2.70;;
81903;SDS011;71370;-33.792;151.032;2023-11-22T05:19:54;4.60;;;1.90;;
81903;SDS011;71370;-33.792;151.032;2023-11-22T05:21:02;7.90;;;2.50;;
81903;SDS011;71370;-33.792;151.032;2023-11-22T05:22:09;7.70;;;2.70;;
81903;SDS011;71370;-33.792;151.032;2023-11-22T05:23:16;7.50;;;3.30;;
81903;SDS011;71370;-33.792;151.032;2023-11-22T05:24:23;5.80;;;3.10;;
81903;SDS011;71370;-33.792;151.032;2023-11-22T05:25:30;5.20;;;2.20;;
81903;SDS011;71370;-33.792;151.032;2023-11-22T05:26:38;6.70;;;2.20;;
81903;SDS011;71370;-33.792;151.032;2023-11-22T05:27:45;5.40;;;2.20;;
81903;SDS011;71370;-33.792;151.032;2023-11-22T05:28:52;7.00;;;2.20;;
81903;SDS011;71370;-33.792;151.032;2023-11-22T05:29:59;6.60;;;2.50;;
81903;SDS011;71370;-33.792;151.032;2023-11-22T05:31:06;6.20;;;1.60;;
81903;SDS011;71370;-33.792;151.032;2023-11-22T05:32:13;6.10;;;2.50;;
81903;SDS011;71370;-33.792;151.032;2023-11-22T05:33:22;7.30;;;2.80;;
81903;SDS011;71370;-33.792;151.032;2023-11-22T05:34:30;5.50;;;2.10;;
81903;SDS011;71370;-33.792;151.032;2023-11-22T05:35:37;6.70;;;2.10;;
81903;SDS011;71370;-33.792;151.032;2023-11-22T05:36:46;5.10;;;2.30;;
81903;SDS011;71370;-33.792;151.032;2023-11-22T05:37:54;5.60;;;2.40;;
81903;SDS011;71370;-33.792;151.032;2023-11-22T05:39:03;7.50;;;2.60;;
81903;SDS011;71370;-33.792;151.032;2023-11-22T05:40:10;8.60;;;2.30;;
81903;SDS011;71370;-33.792;151.032;2023-11-22T05:41:17;7.80;;;2.40;;
81903;SDS011;71370;-33.792;151.032;2023-11-22T05:42:25;9.20;;;3.20;;
81903;SDS011;71370;-33.792;151.032;2023-11-22T05:43:32;8.70;;;3.40;;
81903;SDS011;71370;-33.792;151.032;2023-11-22T05:44:42;5.50;;;2.80;;
81903;SDS011;71370;-33.792;151.032;2023-11-22T05:45:50;5.50;;;2.70;;
81903;SDS011;71370;-33.792;151.032;2023-11-22T05:46:57;8.90;;;3.00;;
81903;SDS011;71370;-33.792;151.032;2023-11-22T05:48:04;7.60;;;3.10;;
81903;SDS011;71370;-33.792;151.032;2023-11-22T05:49:12;7.30;;;2.70;;
81903;SDS011;71370;-33.792;151.032;2023-11-22T05:50:20;5.50;;;2.20;;
81903;SDS011;71370;-33.792;151.032;2023-11-22T05:51:27;6.60;;;2.60;;
81903;SDS011;71370;-33.792;151.032;2023-11-22T05:52:34;8.30;;;2.40;;
81903;SDS011;71370;-33.792;151.032;2023-11-22T05:53:41;5.60;;;2.30;;
81903;SDS011;71370;-33.792;151.032;2023-11-22T05:54:48;7.40;;;2.90;;
81903;SDS011;71370;-33.792;151.032;2023-11-22T05:55:55;7.30;;;2.40;;
81903;SDS011;71370;-33.792;151.032;2023-11-22T05:57:02;6.40;;;2.40;;
81903;SDS011;71370;-33.792;151.032;2023-11-22T05:58:10;7.60;;;2.90;;
81903;SDS011;71370;-33.792;151.032;2023-11-22T05:59:17;7.40;;;2.90;;
81903;SDS011;71370;-33.792;151.032;2023-11-22T06:00:25;5.80;;;2.70;;
81903;SDS011;71370;-33.792;151.032;2023-11-22T06:01:32;8.00;;;3.00;;
81903;SDS011;71370;-33.792;151.032;2023-11-22T06:02:39;7.30;;;3.00;;
81903;SDS011;71370;-33.792;151.032;2023-11-22T06:03:46;7.20;;;2.60;;
81903;SDS011;71370;-33.792;151.032;2023-11-22T06:04:54;7.00;;;2.70;;
81903;SDS011;71370;-33.792;151.032;2023-11-22T06:06:01;7.60;;;2.60;;
81903;SDS011;71370;-33.792;151.032;2023-11-22T06:07:08;8.20;;;2.90;;
81903;SDS011;71370;-33.792;151.032;2023-11-22T06:08:16;8.60;;;3.00;;
81903;SDS011;71370;-33.792;151.032;2023-11-22T06:09:23;6.30;;;2.40;;
81903;SDS011;71370;-33.792;151.032;2023-11-22T06:10:30;9.90;;;2.70;;
81903;SDS011;71370;-33.792;151.032;2023-11-22T06:11:39;8.10;;;3.40;;
81903;SDS011;71370;-33.792;151.032;2023-11-22T06:12:46;10.80;;;3.60;;
81903;SDS011;71370;-33.792;151.032;2023-11-22T06:13:54;6.00;;;3.30;;
81903;SDS011;71370;-33.792;151.032;2023-11-22T06:15:01;7.90;;;2.60;;
81903;SDS011;71370;-33.792;151.032;2023-11-22T06:16:09;7.10;;;2.80;;
81903;SDS011;71370;-33.792;151.032;2023-11-22T06:17:16;6.00;;;2.20;;
81903;SDS011;71370;-33.792;151.032;2023-11-22T06:18:23;7.30;;;2.80;;
81903;SDS011;71370;-33.792;151.032;2023-11-22T06:19:35;8.50;;;2.60;;
81903;SDS011;71370;-33.792;151.032;2023-11-22T06:20:42;7.50;;;2.70;;
81903;SDS011;71370;-33.792;151.032;2023-11-22T06:21:49;8.00;;;2.60;;
81903;SDS011;71370;-33.792;151.032;2023-11-22T06:22:57;7.30;;;2.70;;
81903;SDS011;71370;-33.792;151.032;2023-11-22T06:24:04;5.90;;;2.20;;
81903;SDS011;71370;-33.792;151.032;2023-11-22T06:25:14;7.00;;;2.80;;
81903;SDS011;71370;-33.792;151.032;2023-11-22T06:26:21;8.80;;;2.60;;
81903;SDS011;71370;-33.792;151.032;2023-11-22T06:27:28;5.40;;;2.10;;
81903;SDS011;71370;-33.792;151.032;2023-11-22T06:28:35;6.20;;;1.90;;